Home   Weather   USA   Williston   Past weeks
Flag for USA

Past Weather in Williston, North Dakota, USA — Yesterday and Last 2 Weeks

Currently: 61 °F. Clear. (Weather station: Tioga Municipal Airport, USA). See more current weather

Past Weather in Williston — Graph

°F

Williston Temperature Yesterday

Maximum temperature yesterday: 84 °F (at 5:15 pm)
Minimum temperature yesterday: 50 °F (at 4:55 am)
Average temperature yesterday: 69 °F

High & Low Weather Summary for the Past Weeks

 TemperatureHumidityPressure
High97 °F (Jun 4, 1:35 pm)100% (May 31, 4:35 am)30.22 "Hg (May 31, 4:35 am)
Low34 °F (May 31, 4:35 am)14% (May 31, 3:15 pm)29.46 "Hg (Jun 6, 1:15 am)
Average68 °F55%29.88 "Hg
* Reported May 31 3:15 am — Jun 15 3:55 am, Williston. Weather by CustomWeather, © 2021

Note: Actual official high and low records may vary slightly from our data, if they occured in-between our weather recording intervals... More about our weather records

Williston Weather History for the Previous 24 Hours

Scroll right to see more
 ConditionsComfort  
Time TempWeatherWind HumidityBarometerVisibility
3:55 am
Tue, Jun 15
63 °FClear.15 mph56%30.16 "Hg10 mi
3:35 am63 °FClear.15 mph56%30.16 "Hg10 mi
3:15 am61 °FClear.14 mph59%30.15 "Hg10 mi
2:55 am61 °FClear.14 mph59%30.15 "Hg10 mi
2:35 am63 °FClear.13 mph56%30.15 "Hg10 mi
2:15 am63 °FClear.14 mph56%30.16 "Hg10 mi
1:55 am63 °FClear.13 mph56%30.17 "Hg10 mi
1:35 am64 °FClear.13 mph52%30.17 "Hg10 mi
1:15 am64 °FClear.15 mph52%30.16 "Hg10 mi
12:55 am66 °FClear.13 mph49%30.16 "Hg10 mi
12:35 am64 °FClear.15 mph52%30.15 "Hg10 mi
12:15 am63 °FClear.12 mph59%30.15 "Hg10 mi
11:55 pm
Mon, Jun 14
64 °FClear.14 mph56%30.15 "Hg10 mi
11:35 pm64 °FClear.10 mph56%30.15 "Hg10 mi
11:15 pm68 °FClear.13 mph49%30.15 "Hg10 mi
10:55 pm68 °FClear.13 mph49%30.15 "Hg10 mi
10:35 pm70 °FClear.13 mph46%30.15 "Hg10 mi
10:15 pm70 °FClear.14 mph50%30.14 "Hg10 mi
9:55 pm72 °FClear.13 mph47%30.13 "Hg10 mi
9:35 pm72 °FSunny.12 mph47%30.13 "Hg10 mi
9:15 pm75 °FSunny.12 mph41%30.13 "Hg10 mi
8:55 pm77 °FSunny.12 mph39%30.13 "Hg10 mi
8:35 pm79 °FSunny.10 mph37%30.13 "Hg10 mi
8:15 pm81 °FSunny.14 mph32%30.13 "Hg10 mi
7:55 pm82 °FSunny.16 mph28%30.13 "Hg10 mi
7:35 pm82 °FSunny.18 mph28%30.13 "Hg10 mi
7:15 pm82 °FSunny.20 mph28%30.13 "Hg10 mi
6:55 pm82 °FSunny.18 mph26%30.13 "Hg10 mi
6:35 pm82 °FSunny.18 mph26%30.13 "Hg10 mi
6:15 pm84 °FSunny.15 mph29%30.14 "Hg10 mi
5:55 pm84 °FSunny.20 mph27%30.14 "Hg10 mi
5:35 pm84 °FSunny.21 mph27%30.14 "Hg10 mi
5:15 pm84 °FSunny.16 mph29%30.14 "Hg10 mi
4:55 pm82 °FSunny.15 mph30%30.14 "Hg10 mi
4:35 pm82 °FSunny.17 mph30%30.15 "Hg10 mi
4:15 pm82 °FSunny.16 mph30%30.15 "Hg10 mi
3:55 pm82 °FSunny.15 mph30%30.16 "Hg10 mi
3:35 pm82 °FSunny.13 mph30%30.17 "Hg10 mi
3:15 pm81 °FSunny.10 mph32%30.17 "Hg10 mi
1:55 pm79 °FSunny.14 mph32%30.19 "Hg10 mi
1:35 pm79 °FSunny.15 mph32%30.20 "Hg10 mi
1:15 pm79 °FSunny.14 mph32%30.20 "Hg10 mi
12:55 pm77 °FSunny.14 mph34%30.21 "Hg10 mi
12:35 pm77 °FSunny.16 mph36%30.21 "Hg10 mi
12:15 pm77 °FSunny.18 mph36%30.21 "Hg10 mi
11:55 am77 °FSunny.15 mph36%30.21 "Hg10 mi
11:35 am75 °FSunny.15 mph39%30.22 "Hg10 mi
11:15 am75 °FSunny.17 mph39%30.21 "Hg10 mi
10:55 am73 °FSunny.16 mph41%30.21 "Hg10 mi
10:35 am73 °FSunny.16 mph41%30.21 "Hg10 mi
10:15 am72 °FSunny.17 mph44%30.21 "Hg10 mi
9:55 am72 °FSunny.17 mph44%30.21 "Hg10 mi
9:35 am72 °FSunny.18 mph44%30.20 "Hg10 mi
9:15 am70 °FSunny.17 mph46%30.20 "Hg10 mi
8:55 am68 °FSunny.14 mph56%30.20 "Hg10 mi
8:35 am66 °FSunny.10 mph60%30.20 "Hg10 mi
7:55 am59 °FSunny.5 mph94%30.20 "Hg10 mi
7:35 am55 °FSunny.3 mph100%30.20 "Hg10 mi
7:15 am55 °FSunny.5 mph100%30.20 "Hg10 mi
6:55 am54 °FSunny.3 mph100%30.20 "Hg10 mi
6:15 am50 °FSunny.5 mph100%30.19 "Hg10 mi
5:55 am52 °FSunny.5 mph94%30.19 "Hg10 mi
5:35 am52 °FClear.No wind100%30.19 "Hg10 mi
5:15 am50 °FClear.No wind100%30.19 "Hg10 mi
Weather by CustomWeather, © 2021

See weather overview